Terminal Aerodrome Forecast
Issued by NWS Tulsa, OK

Home | Current Version | Previous Version | Text Only | Print | Product List | Glossary On
Versions: 1 2 3 4 5 6 7 8 9 10 11 12 13
920
FTUS44 KTSA 012326
TAFFSM
TAF
KFSM 012326Z 0200/0224 05012KT P6SM VCTS OVC050CB
     FM020200 05003KT P6SM BKN250
     FM021500 13006KT P6SM SCT250
     FM021800 21007KT P6SM SCT060 SCT250=

USA.gov is the U.S. government's official web portal to all federal, state and local government web resources and services.